sensor_id;sensor_type;location;lat;lon;timestamp;P1;durP1;ratioP1;P2;durP2;ratioP2
19671;SDS011;9983;51.114;13.788;2022-09-16T00:02:41;2.22;;;1.20;;
19671;SDS011;9983;51.114;13.788;2022-09-16T00:07:42;5.78;;;1.67;;
19671;SDS011;9983;51.114;13.788;2022-09-16T00:12:42;3.30;;;1.63;;
19671;SDS011;9983;51.114;13.788;2022-09-16T00:17:42;3.30;;;1.63;;
19671;SDS011;9983;51.114;13.788;2022-09-16T00:22:42;2.65;;;1.75;;
19671;SDS011;9983;51.114;13.788;2022-09-16T00:27:43;2.70;;;1.55;;
19671;SDS011;9983;51.114;13.788;2022-09-16T00:32:43;2.95;;;1.27;;
19671;SDS011;9983;51.114;13.788;2022-09-16T00:37:43;5.70;;;1.63;;
19671;SDS011;9983;51.114;13.788;2022-09-16T00:42:44;3.08;;;1.90;;
19671;SDS011;9983;51.114;13.788;2022-09-16T00:48:06;3.53;;;1.60;;
19671;SDS011;9983;51.114;13.788;2022-09-16T00:53:06;4.10;;;1.60;;
19671;SDS011;9983;51.114;13.788;2022-09-16T00:58:12;4.90;;;1.60;;
19671;SDS011;9983;51.114;13.788;2022-09-16T01:03:47;6.63;;;1.80;;
19671;SDS011;9983;51.114;13.788;2022-09-16T01:08:51;4.05;;;1.83;;
19671;SDS011;9983;51.114;13.788;2022-09-16T01:13:51;3.03;;;1.63;;
19671;SDS011;9983;51.114;13.788;2022-09-16T01:35:32;5.22;;;1.92;;
19671;SDS011;9983;51.114;13.788;2022-09-16T01:40:57;2.55;;;1.73;;
19671;SDS011;9983;51.114;13.788;2022-09-16T01:51:47;2.15;;;1.70;;
19671;SDS011;9983;51.114;13.788;2022-09-16T01:56:57;6.03;;;1.90;;
19671;SDS011;9983;51.114;13.788;2022-09-16T02:02:07;9.45;;;1.90;;
19671;SDS011;9983;51.114;13.788;2022-09-16T02:07:11;2.95;;;1.73;;
19671;SDS011;9983;51.114;13.788;2022-09-16T02:12:17;3.70;;;1.65;;
19671;SDS011;9983;51.114;13.788;2022-09-16T02:17:23;8.00;;;1.70;;
19671;SDS011;9983;51.114;13.788;2022-09-16T02:22:31;4.40;;;1.85;;
19671;SDS011;9983;51.114;13.788;2022-09-16T02:27:37;5.90;;;1.70;;
19671;SDS011;9983;51.114;13.788;2022-09-16T02:32:40;6.82;;;1.45;;
19671;SDS011;9983;51.114;13.788;2022-09-16T02:37:49;3.58;;;1.50;;
19671;SDS011;9983;51.114;13.788;2022-09-16T02:42:55;5.78;;;1.55;;
19671;SDS011;9983;51.114;13.788;2022-09-16T02:48:01;2.00;;;1.10;;
19671;SDS011;9983;51.114;13.788;2022-09-16T02:58:31;4.95;;;1.90;;
19671;SDS011;9983;51.114;13.788;2022-09-16T03:03:32;3.53;;;1.83;;
19671;SDS011;9983;51.114;13.788;2022-09-16T03:08:33;3.10;;;2.13;;
19671;SDS011;9983;51.114;13.788;2022-09-16T03:13:38;5.30;;;2.03;;
19671;SDS011;9983;51.114;13.788;2022-09-16T03:19:51;6.45;;;1.83;;
19671;SDS011;9983;51.114;13.788;2022-09-16T03:24:30;3.50;;;1.70;;
19671;SDS011;9983;51.114;13.788;2022-09-16T03:29:48;4.15;;;1.70;;
19671;SDS011;9983;51.114;13.788;2022-09-16T03:34:58;4.55;;;2.08;;
19671;SDS011;9983;51.114;13.788;2022-09-16T03:40:03;5.30;;;1.88;;
19671;SDS011;9983;51.114;13.788;2022-09-16T03:45:18;4.93;;;1.92;;
19671;SDS011;9983;51.114;13.788;2022-09-16T03:50:19;3.10;;;1.58;;
19671;SDS011;9983;51.114;13.788;2022-09-16T03:55:20;2.78;;;1.70;;
19671;SDS011;9983;51.114;13.788;2022-09-16T04:00:20;4.97;;;1.95;;
19671;SDS011;9983;51.114;13.788;2022-09-16T04:05:21;3.03;;;1.65;;
19671;SDS011;9983;51.114;13.788;2022-09-16T04:10:21;4.25;;;1.60;;
19671;SDS011;9983;51.114;13.788;2022-09-16T04:15:22;3.28;;;1.38;;
19671;SDS011;9983;51.114;13.788;2022-09-16T04:20:22;2.83;;;1.42;;
19671;SDS011;9983;51.114;13.788;2022-09-16T04:25:22;3.58;;;1.65;;
19671;SDS011;9983;51.114;13.788;2022-09-16T04:30:23;4.00;;;1.75;;
19671;SDS011;9983;51.114;13.788;2022-09-16T04:35:24;5.32;;;1.88;;
19671;SDS011;9983;51.114;13.788;2022-09-16T04:40:24;5.07;;;1.60;;
19671;SDS011;9983;51.114;13.788;2022-09-16T04:45:24;1.40;;;1.23;;
19671;SDS011;9983;51.114;13.788;2022-09-16T04:50:25;3.38;;;1.60;;
19671;SDS011;9983;51.114;13.788;2022-09-16T04:55:25;1.88;;;1.25;;
19671;SDS011;9983;51.114;13.788;2022-09-16T05:00:25;2.40;;;1.50;;
19671;SDS011;9983;51.114;13.788;2022-09-16T05:05:26;2.85;;;1.42;;
19671;SDS011;9983;51.114;13.788;2022-09-16T05:10:26;3.13;;;1.40;;
19671;SDS011;9983;51.114;13.788;2022-09-16T05:15:27;5.38;;;1.50;;
19671;SDS011;9983;51.114;13.788;2022-09-16T05:20:27;3.42;;;1.55;;
19671;SDS011;9983;51.114;13.788;2022-09-16T05:25:27;4.72;;;3.20;;
19671;SDS011;9983;51.114;13.788;2022-09-16T05:30:28;4.60;;;1.88;;
19671;SDS011;9983;51.114;13.788;2022-09-16T05:35:28;2.67;;;1.63;;
19671;SDS011;9983;51.114;13.788;2022-09-16T05:40:28;2.35;;;1.30;;
19671;SDS011;9983;51.114;13.788;2022-09-16T05:45:29;2.53;;;1.48;;
19671;SDS011;9983;51.114;13.788;2022-09-16T05:50:30;2.67;;;1.35;;
19671;SDS011;9983;51.114;13.788;2022-09-16T05:55:30;4.00;;;1.60;;
19671;SDS011;9983;51.114;13.788;2022-09-16T06:00:30;3.10;;;1.17;;
19671;SDS011;9983;51.114;13.788;2022-09-16T06:05:31;1.65;;;1.23;;
19671;SDS011;9983;51.114;13.788;2022-09-16T06:10:35;6.20;;;1.40;;
19671;SDS011;9983;51.114;13.788;2022-09-16T06:15:46;4.00;;;1.60;;
19671;SDS011;9983;51.114;13.788;2022-09-16T06:20:48;2.20;;;1.48;;
19671;SDS011;9983;51.114;13.788;2022-09-16T06:25:57;2.95;;;1.58;;
19671;SDS011;9983;51.114;13.788;2022-09-16T06:36:07;4.22;;;1.90;;
19671;SDS011;9983;51.114;13.788;2022-09-16T06:41:12;3.03;;;1.75;;
19671;SDS011;9983;51.114;13.788;2022-09-16T06:46:15;2.30;;;1.95;;
19671;SDS011;9983;51.114;13.788;2022-09-16T06:51:20;3.58;;;1.85;;
19671;SDS011;9983;51.114;13.788;2022-09-16T06:56:25;4.80;;;2.00;;
19671;SDS011;9983;51.114;13.788;2022-09-16T07:01:26;4.82;;;1.90;;
19671;SDS011;9983;51.114;13.788;2022-09-16T07:06:28;1.75;;;1.40;;
19671;SDS011;9983;51.114;13.788;2022-09-16T07:11:28;4.70;;;1.73;;
19671;SDS011;9983;51.114;13.788;2022-09-16T07:16:29;3.33;;;1.67;;
19671;SDS011;9983;51.114;13.788;2022-09-16T07:21:29;2.45;;;1.50;;
19671;SDS011;9983;51.114;13.788;2022-09-16T07:26:30;2.80;;;1.70;;
19671;SDS011;9983;51.114;13.788;2022-09-16T07:31:36;2.60;;;1.70;;
19671;SDS011;9983;51.114;13.788;2022-09-16T07:36:45;1.20;;;1.10;;
19671;SDS011;9983;51.114;13.788;2022-09-16T07:41:47;5.78;;;1.50;;
19671;SDS011;9983;51.114;13.788;2022-09-16T07:46:47;4.78;;;1.20;;
19671;SDS011;9983;51.114;13.788;2022-09-16T07:51:49;1.38;;;1.27;;
19671;SDS011;9983;51.114;13.788;2022-09-16T07:56:50;1.73;;;1.48;;
19671;SDS011;9983;51.114;13.788;2022-09-16T08:01:50;1.83;;;1.10;;
19671;SDS011;9983;51.114;13.788;2022-09-16T08:06:50;4.28;;;1.48;;
19671;SDS011;9983;51.114;13.788;2022-09-16T08:11:50;3.13;;;1.23;;
19671;SDS011;9983;51.114;13.788;2022-09-16T08:16:51;1.77;;;1.35;;
19671;SDS011;9983;51.114;13.788;2022-09-16T08:21:51;2.53;;;1.50;;
19671;SDS011;9983;51.114;13.788;2022-09-16T08:26:51;1.95;;;1.35;;
19671;SDS011;9983;51.114;13.788;2022-09-16T08:31:52;2.38;;;1.73;;
19671;SDS011;9983;51.114;13.788;2022-09-16T08:36:52;1.98;;;1.23;;
19671;SDS011;9983;51.114;13.788;2022-09-16T08:42:27;5.45;;;2.17;;
19671;SDS011;9983;51.114;13.788;2022-09-16T08:47:32;2.83;;;1.15;;
19671;SDS011;9983;51.114;13.788;2022-09-16T08:52:35;2.33;;;1.00;;
19671;SDS011;9983;51.114;13.788;2022-09-16T08:57:38;2.15;;;1.00;;
19671;SDS011;9983;51.114;13.788;2022-09-16T09:08:22;1.60;;;0.70;;
19671;SDS011;9983;51.114;13.788;2022-09-16T09:19:22;0.70;;;0.70;;
19671;SDS011;9983;51.114;13.788;2022-09-16T09:35:11;0.75;;;0.70;;
19671;SDS011;9983;51.114;13.788;2022-09-16T09:45:39;2.05;;;0.88;;
19671;SDS011;9983;51.114;13.788;2022-09-16T09:50:50;2.13;;;0.82;;
19671;SDS011;9983;51.114;13.788;2022-09-16T09:56:00;0.60;;;0.60;;
19671;SDS011;9983;51.114;13.788;2022-09-16T10:01:12;1.58;;;1.00;;
19671;SDS011;9983;51.114;13.788;2022-09-16T10:06:12;1.60;;;0.90;;
19671;SDS011;9983;51.114;13.788;2022-09-16T10:11:16;1.10;;;1.00;;
19671;SDS011;9983;51.114;13.788;2022-09-16T10:16:23;4.70;;;1.38;;
19671;SDS011;9983;51.114;13.788;2022-09-16T10:21:35;1.40;;;1.30;;
19671;SDS011;9983;51.114;13.788;2022-09-16T10:26:40;1.33;;;0.70;;
19671;SDS011;9983;51.114;13.788;2022-09-16T10:31:41;1.42;;;0.77;;
19671;SDS011;9983;51.114;13.788;2022-09-16T10:36:42;1.27;;;0.80;;
19671;SDS011;9983;51.114;13.788;2022-09-16T10:41:43;1.52;;;1.13;;
19671;SDS011;9983;51.114;13.788;2022-09-16T10:46:55;1.40;;;1.30;;
19671;SDS011;9983;51.114;13.788;2022-09-16T10:57:29;1.60;;;1.50;;
19671;SDS011;9983;51.114;13.788;2022-09-16T11:13:26;1.23;;;1.05;;
19671;SDS011;9983;51.114;13.788;2022-09-16T11:19:01;1.10;;;1.00;;
19671;SDS011;9983;51.114;13.788;2022-09-16T11:24:15;1.00;;;1.00;;
19671;SDS011;9983;51.114;13.788;2022-09-16T11:29:59;1.20;;;1.10;;
19671;SDS011;9983;51.114;13.788;2022-09-16T11:40:33;1.10;;;0.75;;
19671;SDS011;9983;51.114;13.788;2022-09-16T11:45:57;0.70;;;0.70;;
19671;SDS011;9983;51.114;13.788;2022-09-16T11:56:36;0.55;;;0.55;;
19671;SDS011;9983;51.114;13.788;2022-09-16T12:01:47;1.98;;;0.80;;
19671;SDS011;9983;51.114;13.788;2022-09-16T12:06:55;0.93;;;0.70;;
19671;SDS011;9983;51.114;13.788;2022-09-16T12:12:12;1.27;;;1.00;;
19671;SDS011;9983;51.114;13.788;2022-09-16T12:17:18;0.85;;;0.85;;
19671;SDS011;9983;51.114;13.788;2022-09-16T12:22:22;1.90;;;0.98;;
19671;SDS011;9983;51.114;13.788;2022-09-16T12:32:33;0.98;;;0.90;;
19671;SDS011;9983;51.114;13.788;2022-09-16T12:48:46;0.90;;;0.90;;
19671;SDS011;9983;51.114;13.788;2022-09-16T12:54:27;1.00;;;0.80;;
19671;SDS011;9983;51.114;13.788;2022-09-16T13:00:04;0.60;;;0.60;;
19671;SDS011;9983;51.114;13.788;2022-09-16T13:05:32;1.65;;;0.90;;
19671;SDS011;9983;51.114;13.788;2022-09-16T13:10:37;1.10;;;0.88;;
19671;SDS011;9983;51.114;13.788;2022-09-16T13:15:39;1.05;;;1.00;;
19671;SDS011;9983;51.114;13.788;2022-09-16T13:20:41;1.27;;;1.17;;
19671;SDS011;9983;51.114;13.788;2022-09-16T13:25:54;2.30;;;1.40;;
19671;SDS011;9983;51.114;13.788;2022-09-16T13:41:36;2.03;;;1.27;;
19671;SDS011;9983;51.114;13.788;2022-09-16T13:46:43;1.70;;;1.30;;
19671;SDS011;9983;51.114;13.788;2022-09-16T13:51:44;3.90;;;1.60;;
19671;SDS011;9983;51.114;13.788;2022-09-16T14:07:33;1.10;;;1.10;;
19671;SDS011;9983;51.114;13.788;2022-09-16T14:13:00;3.42;;;1.30;;
19671;SDS011;9983;51.114;13.788;2022-09-16T14:18:06;1.88;;;1.27;;
19671;SDS011;9983;51.114;13.788;2022-09-16T14:23:15;2.58;;;1.70;;
19671;SDS011;9983;51.114;13.788;2022-09-16T14:28:21;2.33;;;1.13;;
19671;SDS011;9983;51.114;13.788;2022-09-16T14:39:10;1.27;;;0.90;;
19671;SDS011;9983;51.114;13.788;2022-09-16T14:44:09;0.70;;;0.60;;
19671;SDS011;9983;51.114;13.788;2022-09-16T14:49:19;1.58;;;1.10;;
19671;SDS011;9983;51.114;13.788;2022-09-16T14:54:22;0.90;;;0.90;;
19671;SDS011;9983;51.114;13.788;2022-09-16T14:59:25;1.33;;;1.23;;
19671;SDS011;9983;51.114;13.788;2022-09-16T15:04:30;1.98;;;1.00;;
19671;SDS011;9983;51.114;13.788;2022-09-16T15:09:45;1.00;;;0.50;;
19671;SDS011;9983;51.114;13.788;2022-09-16T15:14:49;0.77;;;0.60;;
19671;SDS011;9983;51.114;13.788;2022-09-16T15:19:51;0.57;;;0.40;;
19671;SDS011;9983;51.114;13.788;2022-09-16T15:24:55;1.92;;;0.88;;
19671;SDS011;9983;51.114;13.788;2022-09-16T15:29:59;1.00;;;0.70;;
19671;SDS011;9983;51.114;13.788;2022-09-16T15:35:10;0.70;;;0.50;;
19671;SDS011;9983;51.114;13.788;2022-09-16T15:45:25;2.17;;;0.90;;
19671;SDS011;9983;51.114;13.788;2022-09-16T15:50:27;0.90;;;0.65;;
19671;SDS011;9983;51.114;13.788;2022-09-16T15:55:36;1.17;;;0.85;;
19671;SDS011;9983;51.114;13.788;2022-09-16T16:05:59;1.27;;;0.60;;
19671;SDS011;9983;51.114;13.788;2022-09-16T16:11:07;0.88;;;0.70;;
19671;SDS011;9983;51.114;13.788;2022-09-16T16:16:10;2.08;;;0.82;;
19671;SDS011;9983;51.114;13.788;2022-09-16T16:21:14;0.60;;;0.60;;
19671;SDS011;9983;51.114;13.788;2022-09-16T16:26:15;1.52;;;0.70;;
19671;SDS011;9983;51.114;13.788;2022-09-16T16:31:16;0.93;;;0.80;;
19671;SDS011;9983;51.114;13.788;2022-09-16T16:36:17;1.08;;;0.90;;
19671;SDS011;9983;51.114;13.788;2022-09-16T16:41:19;0.70;;;0.70;;
19671;SDS011;9983;51.114;13.788;2022-09-16T16:46:20;1.10;;;1.00;;
19671;SDS011;9983;51.114;13.788;2022-09-16T16:51:21;0.77;;;0.75;;
19671;SDS011;9983;51.114;13.788;2022-09-16T16:56:21;2.92;;;0.98;;
19671;SDS011;9983;51.114;13.788;2022-09-16T17:01:21;2.33;;;1.10;;
19671;SDS011;9983;51.114;13.788;2022-09-16T17:06:22;2.85;;;1.17;;
19671;SDS011;9983;51.114;13.788;2022-09-16T17:11:22;2.03;;;1.30;;
19671;SDS011;9983;51.114;13.788;2022-09-16T17:16:24;2.03;;;1.17;;
19671;SDS011;9983;51.114;13.788;2022-09-16T17:21:26;3.25;;;1.52;;
19671;SDS011;9983;51.114;13.788;2022-09-16T17:26:30;3.80;;;1.38;;
19671;SDS011;9983;51.114;13.788;2022-09-16T17:31:31;2.17;;;1.27;;
19671;SDS011;9983;51.114;13.788;2022-09-16T17:36:33;3.15;;;1.20;;
19671;SDS011;9983;51.114;13.788;2022-09-16T17:41:37;2.05;;;1.30;;
19671;SDS011;9983;51.114;13.788;2022-09-16T17:46:37;2.80;;;1.60;;
19671;SDS011;9983;51.114;13.788;2022-09-16T17:51:39;5.05;;;1.95;;
19671;SDS011;9983;51.114;13.788;2022-09-16T17:56:39;1.77;;;1.50;;
19671;SDS011;9983;51.114;13.788;2022-09-16T18:01:41;3.65;;;1.52;;
19671;SDS011;9983;51.114;13.788;2022-09-16T18:06:43;2.20;;;1.50;;
19671;SDS011;9983;51.114;13.788;2022-09-16T18:11:44;4.63;;;3.35;;
19671;SDS011;9983;51.114;13.788;2022-09-16T18:16:45;2.90;;;2.60;;
19671;SDS011;9983;51.114;13.788;2022-09-16T18:21:46;7.88;;;4.35;;
19671;SDS011;9983;51.114;13.788;2022-09-16T18:26:46;3.97;;;2.17;;
19671;SDS011;9983;51.114;13.788;2022-09-16T18:31:48;3.42;;;1.85;;
19671;SDS011;9983;51.114;13.788;2022-09-16T18:36:49;3.75;;;2.00;;
19671;SDS011;9983;51.114;13.788;2022-09-16T18:41:49;3.63;;;1.77;;
19671;SDS011;9983;51.114;13.788;2022-09-16T18:46:49;3.55;;;2.03;;
19671;SDS011;9983;51.114;13.788;2022-09-16T18:51:51;2.88;;;2.30;;
19671;SDS011;9983;51.114;13.788;2022-09-16T18:56:52;3.47;;;2.05;;
19671;SDS011;9983;51.114;13.788;2022-09-16T19:01:55;5.63;;;2.10;;
19671;SDS011;9983;51.114;13.788;2022-09-16T19:06:57;2.55;;;1.63;;
19671;SDS011;9983;51.114;13.788;2022-09-16T19:12:08;2.00;;;1.58;;
19671;SDS011;9983;51.114;13.788;2022-09-16T19:17:09;3.17;;;1.50;;
19671;SDS011;9983;51.114;13.788;2022-09-16T19:22:10;3.42;;;1.42;;
19671;SDS011;9983;51.114;13.788;2022-09-16T19:27:10;3.70;;;1.70;;
19671;SDS011;9983;51.114;13.788;2022-09-16T19:32:10;1.42;;;1.33;;
19671;SDS011;9983;51.114;13.788;2022-09-16T19:37:10;3.33;;;1.70;;
19671;SDS011;9983;51.114;13.788;2022-09-16T19:42:11;1.75;;;1.25;;
19671;SDS011;9983;51.114;13.788;2022-09-16T19:47:11;2.83;;;1.42;;
19671;SDS011;9983;51.114;13.788;2022-09-16T19:52:11;3.05;;;1.70;;
19671;SDS011;9983;51.114;13.788;2022-09-16T19:57:12;4.68;;;2.08;;
19671;SDS011;9983;51.114;13.788;2022-09-16T20:02:12;1.85;;;1.40;;
19671;SDS011;9983;51.114;13.788;2022-09-16T20:07:12;3.70;;;1.50;;
19671;SDS011;9983;51.114;13.788;2022-09-16T20:12:15;2.70;;;1.67;;
19671;SDS011;9983;51.114;13.788;2022-09-16T20:17:16;1.42;;;1.33;;
19671;SDS011;9983;51.114;13.788;2022-09-16T20:22:16;1.85;;;1.52;;
19671;SDS011;9983;51.114;13.788;2022-09-16T20:27:16;2.22;;;1.50;;
19671;SDS011;9983;51.114;13.788;2022-09-16T20:32:16;4.50;;;1.80;;
19671;SDS011;9983;51.114;13.788;2022-09-16T20:37:17;3.03;;;1.60;;
19671;SDS011;9983;51.114;13.788;2022-09-16T20:42:17;1.80;;;1.70;;
19671;SDS011;9983;51.114;13.788;2022-09-16T20:47:18;1.92;;;1.50;;
19671;SDS011;9983;51.114;13.788;2022-09-16T20:52:18;2.00;;;1.80;;
19671;SDS011;9983;51.114;13.788;2022-09-16T20:57:18;3.53;;;1.67;;
19671;SDS011;9983;51.114;13.788;2022-09-16T21:02:19;4.32;;;1.80;;
19671;SDS011;9983;51.114;13.788;2022-09-16T21:07:19;2.03;;;1.42;;
19671;SDS011;9983;51.114;13.788;2022-09-16T21:12:20;2.25;;;1.85;;
19671;SDS011;9983;51.114;13.788;2022-09-16T21:17:20;3.33;;;1.73;;
19671;SDS011;9983;51.114;13.788;2022-09-16T21:22:21;3.65;;;1.88;;
19671;SDS011;9983;51.114;13.788;2022-09-16T21:27:21;3.47;;;1.80;;
19671;SDS011;9983;51.114;13.788;2022-09-16T21:32:22;1.67;;;1.58;;
19671;SDS011;9983;51.114;13.788;2022-09-16T21:37:22;1.90;;;1.50;;
19671;SDS011;9983;51.114;13.788;2022-09-16T21:42:22;3.67;;;1.83;;
19671;SDS011;9983;51.114;13.788;2022-09-16T21:47:22;1.40;;;1.30;;
19671;SDS011;9983;51.114;13.788;2022-09-16T21:52:23;1.90;;;1.30;;
19671;SDS011;9983;51.114;13.788;2022-09-16T21:57:24;5.70;;;1.42;;
19671;SDS011;9983;51.114;13.788;2022-09-16T22:02:24;3.35;;;1.42;;
19671;SDS011;9983;51.114;13.788;2022-09-16T22:07:24;1.98;;;1.30;;
19671;SDS011;9983;51.114;13.788;2022-09-16T22:12:24;3.00;;;1.17;;
19671;SDS011;9983;51.114;13.788;2022-09-16T22:17:25;3.63;;;1.20;;
19671;SDS011;9983;51.114;13.788;2022-09-16T22:22:25;2.00;;;1.08;;
19671;SDS011;9983;51.114;13.788;2022-09-16T22:27:26;2.80;;;1.30;;
19671;SDS011;9983;51.114;13.788;2022-09-16T22:32:27;2.72;;;1.30;;
19671;SDS011;9983;51.114;13.788;2022-09-16T22:37:27;2.17;;;1.00;;
19671;SDS011;9983;51.114;13.788;2022-09-16T22:42:27;1.40;;;1.10;;
19671;SDS011;9983;51.114;13.788;2022-09-16T22:47:28;1.98;;;1.30;;
19671;SDS011;9983;51.114;13.788;2022-09-16T22:52:28;1.98;;;1.17;;
19671;SDS011;9983;51.114;13.788;2022-09-16T22:57:30;2.45;;;1.20;;
19671;SDS011;9983;51.114;13.788;2022-09-16T23:02:30;5.65;;;1.50;;
19671;SDS011;9983;51.114;13.788;2022-09-16T23:07:30;4.43;;;1.20;;
19671;SDS011;9983;51.114;13.788;2022-09-16T23:12:33;2.22;;;1.60;;
19671;SDS011;9983;51.114;13.788;2022-09-16T23:17:34;2.15;;;1.30;;
19671;SDS011;9983;51.114;13.788;2022-09-16T23:22:34;2.47;;;1.20;;
19671;SDS011;9983;51.114;13.788;2022-09-16T23:27:35;2.47;;;1.13;;
19671;SDS011;9983;51.114;13.788;2022-09-16T23:32:35;3.28;;;1.25;;
19671;SDS011;9983;51.114;13.788;2022-09-16T23:37:35;4.78;;;1.40;;
19671;SDS011;9983;51.114;13.788;2022-09-16T23:42:36;3.85;;;1.55;;
19671;SDS011;9983;51.114;13.788;2022-09-16T23:47:36;1.42;;;1.20;;
19671;SDS011;9983;51.114;13.788;2022-09-16T23:52:36;2.88;;;1.30;;
19671;SDS011;9983;51.114;13.788;2022-09-16T23:57:36;4.53;;;1.30;;
